Badlands Natl Park, South Dakota
Current Conditions -  °F | °C
As of 4:55 PM on Wednesday 22 Oct 2014 (Local Time) from KPHP Reporting Station
Clear Clear  
Wind Chill: 65°   Ceiling: Unl
Heat Index: 65°   Visibility: 10mi
Dew Point: 32°   Wind: 8mph
Humidity: 29%   Direction: 300°WNW
Pressure: 29.96"   Gusts: NA
Location:  43.78°N, 102.25°W
Report Text: KPHP 222255Z AUTO 30007KT 10SM CLR 18/00 A2996 RMK AO2 SLP135 T01830000
Loading
Personal Weather Stations






























Interactive Weather Map
Tropical Storm Tracking
New forecast layout! Learn more

10-Day Weather Forecast

Advertisements
Track Severe Weather on mobile